createdAt,value
2023-04-14T00:00:42.156Z,93703.97
2023-04-14T00:03:09.388Z,93726.94
2023-04-14T00:05:36.623Z,93722.03
2023-04-14T00:08:03.668Z,93718.47
2023-04-14T00:10:30.883Z,93728.03
2023-04-14T00:12:57.782Z,93724.53
2023-04-14T00:15:24.661Z,93722.53
2023-04-14T00:17:51.677Z,93725.13
2023-04-14T00:20:18.769Z,93731.00
2023-04-14T00:22:45.660Z,93727.88
2023-04-14T00:25:12.619Z,93744.81
2023-04-14T00:27:39.474Z,93733.22
2023-04-14T00:30:07.384Z,93739.00
2023-04-14T00:32:34.272Z,93732.22
2023-04-14T00:35:03.529Z,93746.56
2023-04-14T00:37:31.152Z,93754.50
2023-04-14T00:39:58.069Z,93745.22
2023-04-14T00:42:25.312Z,93759.31
2023-04-14T00:44:52.279Z,93742.16
2023-04-14T00:47:19.474Z,93754.22
2023-04-14T00:49:46.373Z,93754.72
2023-04-14T00:52:13.258Z,93743.97
2023-04-14T00:54:40.832Z,93763.50
2023-04-14T00:57:08.048Z,93760.75
2023-04-14T00:59:34.969Z,93748.72
2023-04-14T01:02:02.465Z,93756.22
2023-04-14T01:04:40.483Z,93751.31
2023-04-14T01:07:16.488Z,93760.44
2023-04-14T01:09:43.648Z,93756.59
2023-04-14T01:12:36.586Z,93758.25
2023-04-14T01:15:17.388Z,93763.13
2023-04-14T01:18:22.018Z,93763.44
2023-04-14T01:20:52.352Z,93758.25
2023-04-14T01:23:29.736Z,93758.25
2023-04-14T01:26:18.745Z,93766.13
2023-04-14T01:29:04.182Z,93770.34
2023-04-14T01:31:35.196Z,93778.72
2023-04-14T01:34:50.660Z,93769.97
2023-04-14T01:37:26.388Z,93776.44
2023-04-14T01:39:54.953Z,93774.38
2023-04-14T01:42:31.042Z,93770.84
2023-04-14T01:45:06.531Z,93780.41
2023-04-14T01:47:34.672Z,93781.22
2023-04-14T01:50:04.339Z,93773.44
2023-04-14T01:52:32.926Z,93766.09
2023-04-14T01:55:05.846Z,93755.59
2023-04-14T01:57:37.146Z,93772.22
2023-04-14T02:00:05.187Z,93772.09
2023-04-14T02:02:33.885Z,93765.38
2023-04-14T02:05:04.084Z,93766.41
2023-04-14T02:07:33.606Z,93762.84
2023-04-14T02:10:03.249Z,93772.72
2023-04-14T02:12:31.140Z,93766.13
2023-04-14T02:15:01.310Z,93767.38
2023-04-14T02:17:29.298Z,93766.31
2023-04-14T02:19:56.759Z,93747.84
2023-04-14T02:22:23.623Z,93764.78
2023-04-14T02:24:51.571Z,93752.91
2023-04-14T02:27:36.101Z,93762.94
2023-04-14T02:30:30.211Z,93751.78
2023-04-14T02:33:08.609Z,93761.06
2023-04-14T02:36:02.778Z,93757.34
2023-04-14T02:38:39.409Z,93755.69
2023-04-14T02:41:17.481Z,93764.88
2023-04-14T02:44:09.666Z,93775.50
2023-04-14T02:46:42.061Z,93770.03
2023-04-14T02:49:13.160Z,93768.38
2023-04-14T02:51:41.907Z,93775.00
2023-04-14T02:54:09.161Z,93781.53
2023-04-14T02:56:36.314Z,93763.94
2023-04-14T02:59:04.385Z,93768.16
2023-04-14T03:01:33.342Z,93772.09
2023-04-14T03:04:00.999Z,93768.97
2023-04-14T03:06:29.196Z,93769.94
2023-04-14T03:08:58.473Z,93762.84
2023-04-14T03:11:26.921Z,93768.16
2023-04-14T03:13:56.705Z,93765.56
2023-04-14T03:16:24.772Z,93756.19
2023-04-14T03:18:54.618Z,93764.78
2023-04-14T03:21:22.213Z,93758.97
2023-04-14T03:23:51.779Z,93761.13
2023-04-14T03:26:21.967Z,93754.00
2023-04-14T03:28:53.606Z,93752.75
2023-04-14T03:31:27.441Z,93744.19
2023-04-14T03:33:57.470Z,93749.88
2023-04-14T03:36:26.430Z,93744.94
2023-04-14T03:38:55.940Z,93750.25
2023-04-14T03:41:23.704Z,93744.78
2023-04-14T03:43:54.771Z,93745.88
2023-04-14T03:46:24.338Z,93747.53
2023-04-14T03:48:54.213Z,93744.84
2023-04-14T03:51:23.046Z,93750.31
2023-04-14T03:53:52.127Z,93758.09
2023-04-14T03:56:20.079Z,93759.63
2023-04-14T03:58:49.552Z,93754.72
2023-04-14T04:01:18.739Z,93755.84
2023-04-14T04:03:47.067Z,93763.63
2023-04-14T04:06:14.498Z,93771.44
2023-04-14T04:08:41.894Z,93770.59
2023-04-14T04:11:09.264Z,93776.78
2023-04-14T04:13:37.123Z,93785.91
2023-04-14T04:16:07.220Z,93789.19
2023-04-14T04:18:39.086Z,93786.34
2023-04-14T04:21:07.346Z,93788.81
2023-04-14T04:23:35.370Z,93792.59
2023-04-14T04:26:02.673Z,93802.31
2023-04-14T04:28:29.833Z,93803.13
2023-04-14T04:30:56.827Z,93807.09
2023-04-14T04:33:24.812Z,93812.53
2023-04-14T04:35:53.219Z,93812.41
2023-04-14T04:38:20.071Z,93812.53
2023-04-14T04:40:46.960Z,93815.41
2023-04-14T04:43:13.831Z,93822.75
2023-04-14T04:45:58.792Z,93818.69
2023-04-14T04:48:25.971Z,93812.13
2023-04-14T04:50:52.815Z,93822.34
2023-04-14T04:53:19.711Z,93819.47
2023-04-14T04:55:49.402Z,93826.28
2023-04-14T04:58:16.286Z,93811.13
2023-04-14T05:00:43.682Z,93812.72
2023-04-14T05:03:10.620Z,93810.56
2023-04-14T05:05:37.820Z,93826.78
2023-04-14T05:08:05.041Z,93802.59
2023-04-14T05:10:36.834Z,93830.16
2023-04-14T05:13:03.907Z,93815.13
2023-04-14T05:15:30.832Z,93828.41
2023-04-14T05:17:59.401Z,93831.69
2023-04-14T05:20:26.558Z,93831.50
2023-04-14T05:22:53.575Z,93839.00
2023-04-14T05:25:20.548Z,93840.34
2023-04-14T05:27:47.359Z,93824.34
2023-04-14T05:30:14.425Z,93832.84
2023-04-14T05:32:41.561Z,93830.66
2023-04-14T05:35:08.977Z,93823.84
2023-04-14T05:37:36.367Z,93834.22
2023-04-14T05:40:04.259Z,93835.19
2023-04-14T05:42:31.239Z,93838.06
2023-04-14T05:44:58.098Z,93838.59
2023-04-14T05:47:25.030Z,93833.13
2023-04-14T05:49:51.994Z,93826.75
2023-04-14T05:52:18.852Z,93840.41
2023-04-14T05:54:45.899Z,93842.59
2023-04-14T05:57:12.746Z,93850.22
2023-04-14T05:59:39.610Z,93834.09
2023-04-14T06:02:07.646Z,93841.91
2023-04-14T06:04:34.843Z,93845.06
2023-04-14T06:07:03.115Z,93853.41
2023-04-14T06:09:30.038Z,93854.66
2023-04-14T06:11:56.989Z,93850.03
2023-04-14T06:14:23.952Z,93837.75
2023-04-14T06:16:51.453Z,93847.03
2023-04-14T06:19:21.163Z,93851.69
2023-04-14T06:21:48.054Z,93827.66
2023-04-14T06:24:14.934Z,93842.56
2023-04-14T06:26:42.240Z,93849.00
2023-04-14T06:29:09.153Z,93838.06
2023-04-14T06:31:36.723Z,93844.09
2023-04-14T06:34:03.729Z,93842.84
2023-04-14T06:36:32.180Z,93838.78
2023-04-14T06:39:00.480Z,93840.53
2023-04-14T06:41:27.475Z,93830.69
2023-04-14T06:43:54.332Z,93818.41
2023-04-14T06:46:21.327Z,93814.13
2023-04-14T06:48:48.240Z,93813.66
2023-04-14T06:51:15.123Z,93806.34
2023-04-14T06:53:42.061Z,93807.47
2023-04-14T06:56:09.175Z,93807.16
2023-04-14T06:58:36.177Z,93803.69
2023-04-14T07:01:04.369Z,93794.84
2023-04-14T07:03:31.972Z,93799.28
2023-04-14T07:06:07.813Z,93787.59
2023-04-14T07:08:35.546Z,93792.41
2023-04-14T07:11:05.023Z,93794.69
2023-04-14T07:13:32.978Z,93785.72
2023-04-14T07:16:04.235Z,93779.78
2023-04-14T07:18:31.968Z,93774.47
2023-04-14T07:21:00.459Z,93765.22
2023-04-14T07:23:27.888Z,93766.84
2023-04-14T07:25:57.655Z,93774.88
2023-04-14T07:28:25.795Z,93762.22
2023-04-14T07:30:53.421Z,93772.63
2023-04-14T07:33:22.361Z,93766.44
2023-04-14T07:35:58.697Z,93779.34
2023-04-14T07:38:28.668Z,93766.75
2023-04-14T07:40:55.797Z,93758.25
2023-04-14T07:43:23.396Z,93771.28
2023-04-14T07:45:52.204Z,93776.59
2023-04-14T07:48:21.637Z,93769.88
2023-04-14T07:50:52.035Z,93780.09
2023-04-14T07:53:18.927Z,93768.94
2023-04-14T07:55:46.208Z,93778.56
2023-04-14T07:58:15.775Z,93775.91
2023-04-14T08:00:43.414Z,93782.03
2023-04-14T08:03:10.676Z,93773.88
2023-04-14T08:05:38.172Z,93782.13
2023-04-14T08:08:05.554Z,93788.88
2023-04-14T08:10:32.597Z,93785.19
2023-04-14T08:13:01.009Z,93772.53
2023-04-14T08:15:29.270Z,93783.41
2023-04-14T08:17:56.577Z,93778.88
2023-04-14T08:20:23.597Z,93776.44
2023-04-14T08:22:50.448Z,93789.69
2023-04-14T08:25:17.286Z,93786.84
2023-04-14T08:27:44.485Z,93782.84
2023-04-14T08:30:11.915Z,93791.22
2023-04-14T08:32:38.866Z,93787.69
2023-04-14T08:35:36.260Z,93791.06
2023-04-14T08:37:53.412Z,93790.09
2023-04-14T08:40:22.755Z,93792.34
2023-04-14T08:42:49.702Z,93779.25
2023-04-14T08:45:16.655Z,93780.03
2023-04-14T08:47:46.245Z,93782.72
2023-04-14T08:50:18.343Z,93793.84
2023-04-14T08:52:47.426Z,93788.88
2023-04-14T08:55:16.296Z,93788.31
2023-04-14T08:57:44.702Z,93787.69
2023-04-14T09:00:12.284Z,93783.63
2023-04-14T09:02:43.047Z,93798.19
2023-04-14T09:05:11.578Z,93797.31
2023-04-14T09:07:38.961Z,93783.63
2023-04-14T09:10:07.051Z,93794.53
2023-04-14T09:12:34.568Z,93793.19
2023-04-14T09:15:02.422Z,93787.56
2023-04-14T09:17:31.105Z,93788.19
2023-04-14T09:20:38.105Z,93795.16
2023-04-14T09:22:46.137Z,93784.25
2023-04-14T09:25:16.186Z,93785.34
2023-04-14T09:27:43.169Z,93785.41
2023-04-14T09:30:10.636Z,93797.28
2023-04-14T09:32:38.734Z,93793.09
2023-04-14T09:35:06.456Z,93794.44
2023-04-14T09:37:44.865Z,93793.47
2023-04-14T09:40:28.776Z,93795.25
2023-04-14T09:42:57.417Z,93781.47
2023-04-14T09:45:45.111Z,93789.84
2023-04-14T09:48:15.722Z,93782.34
2023-04-14T09:51:07.079Z,93772.09
2023-04-14T09:53:38.810Z,93784.59
2023-04-14T09:56:09.790Z,93779.31
2023-04-14T09:58:39.556Z,93774.97
2023-04-14T10:01:34.807Z,93780.91
2023-04-14T10:04:03.084Z,93777.31
2023-04-14T10:06:31.770Z,93771.28
2023-04-14T10:08:59.498Z,93762.13
2023-04-14T10:11:35.455Z,93761.22
2023-04-14T10:14:04.805Z,93755.63
2023-04-14T10:16:33.023Z,93750.22
2023-04-14T10:19:00.839Z,93749.91
2023-04-14T10:21:28.298Z,93740.69
2023-04-14T10:23:58.416Z,93744.72
2023-04-14T10:26:26.511Z,93742.41
2023-04-14T10:28:56.380Z,93737.59
2023-04-14T10:31:30.386Z,93744.78
2023-04-14T10:33:57.313Z,93733.25
2023-04-14T10:36:29.147Z,93739.72
2023-04-14T10:39:05.492Z,93736.84
2023-04-14T10:41:44.377Z,93730.28
2023-04-14T10:44:35.107Z,93728.06
2023-04-14T10:47:05.497Z,93735.63
2023-04-14T10:49:38.725Z,93725.09
2023-04-14T10:52:17.422Z,93726.72
2023-04-14T10:54:54.761Z,93709.28
2023-04-14T10:57:27.056Z,93712.38
2023-04-14T10:59:57.347Z,93709.91
2023-04-14T11:02:32.630Z,93710.91
2023-04-14T11:05:12.057Z,93703.38
2023-04-14T11:07:45.839Z,93698.50
2023-04-14T11:10:21.664Z,93694.59
2023-04-14T11:12:57.669Z,93694.22
2023-04-14T11:15:24.935Z,93687.31
2023-04-14T11:17:52.246Z,93687.31
2023-04-14T11:20:22.190Z,93691.16
2023-04-14T11:22:52.628Z,93687.16
2023-04-14T11:25:24.598Z,93691.81
2023-04-14T11:27:52.568Z,93685.94
2023-04-14T11:30:21.545Z,93691.00
2023-04-14T11:32:54.454Z,93693.47
2023-04-14T11:35:23.861Z,93689.19
2023-04-14T11:37:56.991Z,93695.50
2023-04-14T11:40:26.396Z,93685.94
2023-04-14T11:42:58.109Z,93684.50
2023-04-14T11:45:29.752Z,93685.72
2023-04-14T11:48:05.873Z,93680.03
2023-04-14T11:50:39.196Z,93681.25
2023-04-14T11:53:10.801Z,93668.44
2023-04-14T11:55:42.766Z,93664.31
2023-04-14T11:58:10.491Z,93664.47
2023-04-14T12:00:37.908Z,93663.56
2023-04-14T12:03:05.346Z,93650.38
2023-04-14T12:05:33.890Z,93645.88
2023-04-14T12:09:58.480Z,93646.13
2023-04-14T12:10:50.875Z,93636.88
2023-04-14T12:13:19.686Z,93648.19
2023-04-14T12:15:46.634Z,93632.53
2023-04-14T12:18:17.369Z,93623.94
2023-04-14T12:21:01.669Z,93626.56
2023-04-14T12:23:28.813Z,93627.88
2023-04-14T12:25:55.725Z,93612.06
2023-04-14T12:28:30.027Z,93627.34
2023-04-14T12:31:02.718Z,93621.59
2023-04-14T12:33:32.376Z,93630.09
2023-04-14T12:36:12.562Z,93619.13
2023-04-14T12:38:39.893Z,93622.44
2023-04-14T12:41:06.902Z,93619.63
2023-04-14T12:43:36.776Z,93617.25
2023-04-14T12:46:05.798Z,93618.50
2023-04-14T12:48:48.498Z,93616.72
2023-04-14T12:51:20.249Z,93601.28
2023-04-14T12:53:50.530Z,93605.16
2023-04-14T12:56:19.984Z,93601.09
2023-04-14T12:58:47.860Z,93606.03
2023-04-14T13:01:19.751Z,93607.66
2023-04-14T13:03:55.805Z,93602.38
2023-04-14T13:06:24.806Z,93606.22
2023-04-14T13:08:53.976Z,93602.53
2023-04-14T13:11:23.652Z,93596.41
2023-04-14T13:13:53.688Z,93577.03
2023-04-14T13:16:21.404Z,93569.53
2023-04-14T13:18:49.387Z,93573.34
2023-04-14T13:21:16.948Z,93567.47
2023-04-14T13:23:43.840Z,93568.88
2023-04-14T13:26:11.025Z,93560.47
2023-04-14T13:28:37.992Z,93557.94
2023-04-14T13:31:05.055Z,93556.69
2023-04-14T13:33:33.270Z,93551.75
2023-04-14T13:36:02.653Z,93545.16
2023-04-14T13:38:29.775Z,93548.06
2023-04-14T13:40:56.719Z,93546.09
2023-04-14T13:43:23.619Z,93553.53
2023-04-14T13:45:50.815Z,93548.31
2023-04-14T13:48:17.773Z,93547.75
2023-04-14T13:50:44.709Z,93552.78
2023-04-14T13:53:12.527Z,93548.00
2023-04-14T13:55:39.499Z,93533.78
2023-04-14T13:58:06.516Z,93526.28
2023-04-14T14:00:33.604Z,93535.75
2023-04-14T14:03:01.191Z,93535.75
2023-04-14T14:05:28.456Z,93531.38
2023-04-14T14:07:56.845Z,93524.84
2023-04-14T14:10:23.801Z,93511.50
2023-04-14T14:12:50.662Z,93530.75
2023-04-14T14:15:17.717Z,93519.56
2023-04-14T14:17:44.594Z,93532.03
2023-04-14T14:20:11.657Z,93521.34
2023-04-14T14:22:39.114Z,93521.28
2023-04-14T14:25:17.590Z,93512.38
2023-04-14T14:27:47.001Z,93525.72
2023-04-14T14:30:14.204Z,93509.94
2023-04-14T14:32:41.095Z,93524.94
2023-04-14T14:35:08.488Z,93517.00
2023-04-14T14:37:35.490Z,93507.81
2023-04-14T14:40:02.832Z,93519.53
2023-04-14T14:42:29.696Z,93508.16
2023-04-14T14:44:57.500Z,93502.75
2023-04-14T14:47:24.874Z,93497.34
2023-04-14T14:49:59.866Z,93510.94
2023-04-14T14:52:29.724Z,93507.59
2023-04-14T14:54:56.781Z,93514.44
2023-04-14T14:57:23.670Z,93505.13
2023-04-14T14:59:50.518Z,93502.44
2023-04-14T15:02:17.790Z,93508.28
2023-04-14T15:04:44.898Z,93503.47
2023-04-14T15:07:13.224Z,93507.34
2023-04-14T15:09:41.287Z,93496.25
2023-04-14T15:12:08.489Z,93501.47
2023-04-14T15:14:35.822Z,93508.84
2023-04-14T15:17:03.209Z,93498.91
2023-04-14T15:19:30.059Z,93502.34
2023-04-14T15:21:56.939Z,93501.19
2023-04-14T15:24:23.810Z,93503.63
2023-04-14T15:26:50.687Z,93487.34
2023-04-14T15:29:17.532Z,93497.50
2023-04-14T15:31:44.457Z,93499.25
2023-04-14T15:34:11.302Z,93502.84
2023-04-14T15:36:38.196Z,93502.72
2023-04-14T15:39:05.047Z,93510.66
2023-04-14T15:41:31.893Z,93489.31
2023-04-14T15:43:58.824Z,93502.31
2023-04-14T15:46:25.850Z,93496.84
2023-04-14T15:48:52.744Z,93484.63
2023-04-14T15:51:19.574Z,93492.19
2023-04-14T15:53:46.402Z,93500.56
2023-04-14T15:56:14.466Z,93497.34
2023-04-14T15:58:41.328Z,93503.28
2023-04-14T16:01:08.437Z,93507.72
2023-04-14T16:03:36.997Z,93505.38
2023-04-14T16:06:07.069Z,93504.03
2023-04-14T16:08:34.029Z,93504.84
2023-04-14T16:11:00.898Z,93507.53
2023-04-14T16:13:27.789Z,93511.66
2023-04-14T16:15:54.673Z,93508.50
2023-04-14T16:18:21.924Z,93495.06
2023-04-14T16:20:50.386Z,93515.34
2023-04-14T16:23:17.406Z,93511.31
2023-04-14T16:25:49.923Z,93515.59
2023-04-14T16:28:16.964Z,93506.31
2023-04-14T16:30:44.235Z,93518.50
2023-04-14T16:33:11.166Z,93518.94
2023-04-14T16:35:38.014Z,93516.88
2023-04-14T16:38:08.748Z,93518.13
2023-04-14T16:40:36.720Z,93517.75
2023-04-14T16:43:04.586Z,93516.09
2023-04-14T16:45:32.356Z,93518.16
2023-04-14T16:47:59.661Z,93517.56
2023-04-14T16:50:27.366Z,93515.41
2023-04-14T16:52:54.528Z,93519.88
2023-04-14T16:55:21.697Z,93516.25
2023-04-14T16:57:48.608Z,93515.84
2023-04-14T17:00:16.945Z,93519.50
2023-04-14T17:02:44.059Z,93517.97
2023-04-14T17:05:13.394Z,93524.00
2023-04-14T17:07:41.170Z,93519.22
2023-04-14T17:10:08.779Z,93525.72
2023-04-14T17:12:35.669Z,93518.44
2023-04-14T17:15:03.881Z,93512.63
2023-04-14T17:17:31.996Z,93520.91
2023-04-14T17:19:59.656Z,93515.06
2023-04-14T17:22:27.859Z,93523.38
2023-04-14T17:24:55.032Z,93517.31
2023-04-14T17:27:22.474Z,93529.06
2023-04-14T17:29:49.724Z,93531.13
2023-04-14T17:32:18.645Z,93524.84
2023-04-14T17:34:48.869Z,93524.84
2023-04-14T17:37:16.219Z,93523.50
2023-04-14T17:39:43.570Z,93526.31
2023-04-14T17:42:11.651Z,93519.44
2023-04-14T17:44:38.563Z,93514.59
2023-04-14T17:47:13.238Z,93530.44
2023-04-14T17:49:40.194Z,93525.59
2023-04-14T17:52:07.984Z,93528.44
2023-04-14T17:54:35.940Z,93528.66
2023-04-14T17:57:04.437Z,93530.06
2023-04-14T17:59:31.806Z,93530.47
2023-04-14T18:01:58.739Z,93519.13
2023-04-14T18:04:25.713Z,93541.38
2023-04-14T18:06:52.920Z,93524.75
2023-04-14T18:09:19.795Z,93538.09
2023-04-14T18:11:46.668Z,93541.09
2023-04-14T18:14:14.014Z,93544.66
2023-04-14T18:16:40.980Z,93545.28
2023-04-14T18:19:08.394Z,93542.19
2023-04-14T18:21:35.310Z,93545.38
2023-04-14T18:26:31.980Z,93543.50
2023-04-14T18:28:58.887Z,93551.47
2023-04-14T18:31:26.040Z,93552.03
2023-04-14T18:33:53.018Z,93551.78
2023-04-14T18:36:19.908Z,93553.31
2023-04-14T18:38:46.756Z,93558.13
2023-04-14T18:41:13.751Z,93565.94
2023-04-14T18:43:40.605Z,93562.41
2023-04-14T18:46:08.372Z,93574.41
2023-04-14T18:48:35.411Z,93578.41
2023-04-14T18:51:08.231Z,93585.22
2023-04-14T18:53:35.239Z,93577.47
2023-04-14T18:56:02.425Z,93578.41
2023-04-14T18:58:32.150Z,93587.88
2023-04-14T19:00:59.265Z,93581.84
2023-04-14T19:03:27.299Z,93582.97
2023-04-14T19:05:55.640Z,93592.38
2023-04-14T19:08:22.834Z,93596.56
2023-04-14T19:10:49.787Z,93588.16
2023-04-14T19:13:17.064Z,93594.34
2023-04-14T19:15:44.473Z,93592.00
2023-04-14T19:18:11.627Z,93586.31
2023-04-14T19:20:38.687Z,93597.06
2023-04-14T19:23:05.737Z,93595.88
2023-04-14T19:25:32.588Z,93595.50
2023-04-14T19:28:01.402Z,93607.03
2023-04-14T19:30:29.339Z,93602.06
2023-04-14T19:32:56.383Z,93610.63
2023-04-14T19:35:23.722Z,93605.31
2023-04-14T19:37:50.824Z,93600.97
2023-04-14T19:40:18.104Z,93608.53
2023-04-14T19:42:44.962Z,93612.28
2023-04-14T19:45:11.951Z,93603.91
2023-04-14T19:47:39.033Z,93614.81
2023-04-14T19:50:06.381Z,93604.09
2023-04-14T19:52:33.227Z,93611.94
2023-04-14T19:55:00.352Z,93606.59
2023-04-14T19:57:29.665Z,93610.06
2023-04-14T19:59:57.222Z,93600.31
2023-04-14T20:02:28.255Z,93602.28
2023-04-14T20:04:57.364Z,93609.34
2023-04-14T20:07:24.326Z,93607.50
2023-04-14T20:09:51.442Z,93594.63
2023-04-14T20:12:18.546Z,93590.78
2023-04-14T20:14:46.074Z,93603.19
2023-04-14T20:17:13.635Z,93601.28
2023-04-14T20:19:40.639Z,93597.38
2023-04-14T20:22:07.729Z,93601.66
2023-04-14T20:24:34.682Z,93599.72
2023-04-14T20:27:01.602Z,93595.47
2023-04-14T20:29:28.473Z,93598.91
2023-04-14T20:31:55.363Z,93597.13
2023-04-14T20:34:22.205Z,93599.56
2023-04-14T20:36:49.211Z,93591.28
2023-04-14T20:39:16.115Z,93598.09
2023-04-14T20:41:42.976Z,93597.16
2023-04-14T20:44:09.867Z,93589.63
2023-04-14T20:46:37.277Z,93602.00
2023-04-14T20:49:04.491Z,93599.41
2023-04-14T20:51:32.477Z,93606.22
2023-04-14T20:53:59.351Z,93606.19
2023-04-14T20:56:28.717Z,93607.63
2023-04-14T20:58:56.280Z,93608.13
2023-04-14T21:01:25.687Z,93605.28
2023-04-14T21:03:52.813Z,93615.81
2023-04-14T21:06:19.743Z,93605.72
2023-04-14T21:08:46.632Z,93604.06
2023-04-14T21:11:15.113Z,93595.88
2023-04-14T21:15:28.223Z,93607.25
2023-04-14T21:16:30.989Z,93611.75
2023-04-14T21:18:57.895Z,93612.00
2023-04-14T21:21:24.762Z,93603.13
2023-04-14T21:23:51.658Z,93607.59
2023-04-14T21:26:19.168Z,93609.44
2023-04-14T21:28:46.355Z,93616.69
2023-04-14T21:31:13.267Z,93614.56
2023-04-14T21:33:41.924Z,93609.44
2023-04-14T21:36:12.046Z,93609.50
2023-04-14T21:38:39.433Z,93602.03
2023-04-14T21:41:08.199Z,93602.31
2023-04-14T21:43:35.370Z,93604.53
2023-04-14T21:46:02.368Z,93598.19
2023-04-14T21:48:29.526Z,93593.75
2023-04-14T21:50:56.636Z,93597.09
2023-04-14T21:53:23.711Z,93607.06
2023-04-14T21:55:58.864Z,93610.50
2023-04-14T21:58:37.650Z,93607.09
2023-04-14T22:01:04.872Z,93613.53
2023-04-14T22:03:33.440Z,93604.69
2023-04-14T22:06:00.385Z,93615.41
2023-04-14T22:08:27.315Z,93608.88
2023-04-14T22:10:54.987Z,93613.34
2023-04-14T22:13:21.849Z,93625.59
2023-04-14T22:15:49.964Z,93620.59
2023-04-14T22:18:17.380Z,93625.19
2023-04-14T22:20:45.302Z,93623.47
2023-04-14T22:23:13.382Z,93620.75
2023-04-14T22:25:40.602Z,93624.59
2023-04-14T22:28:07.633Z,93624.06
2023-04-14T22:30:35.374Z,93630.09
2023-04-14T22:33:02.626Z,93620.78
2023-04-14T22:35:30.274Z,93631.41
2023-04-14T22:37:57.362Z,93628.03
2023-04-14T22:40:24.599Z,93638.81
2023-04-14T22:42:51.865Z,93638.53
2023-04-14T22:45:18.856Z,93641.97
2023-04-14T22:47:46.029Z,93633.41
2023-04-14T22:50:13.056Z,93641.34
2023-04-14T22:52:39.869Z,93626.09
2023-04-14T22:55:07.850Z,93643.38
2023-04-14T22:57:34.747Z,93636.19
2023-04-14T23:00:01.680Z,93631.56
2023-04-14T23:02:28.747Z,93646.69
2023-04-14T23:04:55.790Z,93650.53
2023-04-14T23:07:22.679Z,93643.88
2023-04-14T23:09:49.738Z,93644.56
2023-04-14T23:12:17.286Z,93638.47
2023-04-14T23:14:44.131Z,93636.69
2023-04-14T23:17:11.296Z,93646.50
2023-04-14T23:19:39.434Z,93637.25
2023-04-14T23:22:06.250Z,93626.34
2023-04-14T23:24:33.119Z,93633.56
2023-04-14T23:27:00.589Z,93624.84
2023-04-14T23:29:27.685Z,93635.59
2023-04-14T23:31:54.664Z,93635.22
2023-04-14T23:34:21.784Z,93637.69
2023-04-14T23:36:48.667Z,93632.94
2023-04-14T23:39:15.580Z,93634.13
2023-04-14T23:41:42.793Z,93630.88
2023-04-14T23:44:09.661Z,93632.09
2023-04-14T23:46:36.571Z,93626.91
2023-04-14T23:49:23.078Z,93612.47
2023-04-14T23:51:50.257Z,93623.50
2023-04-14T23:54:17.071Z,93627.63
2023-04-14T23:56:43.937Z,93628.81
2023-04-14T23:59:10.761Z,93616.16
